sensor_id;sensor_type;location;lat;lon;timestamp;P1;durP1;ratioP1;P2;durP2;ratioP2
33954;SDS011;20233;50.804;7.126;2022-09-03T00:10:21;3.72;;;0.50;;
33954;SDS011;20233;50.804;7.126;2022-09-03T00:13:00;1.38;;;0.47;;
33954;SDS011;20233;50.804;7.126;2022-09-03T00:15:29;2.08;;;0.50;;
33954;SDS011;20233;50.804;7.126;2022-09-03T00:18:07;4.22;;;0.47;;
33954;SDS011;20233;50.804;7.126;2022-09-03T00:20:48;1.20;;;0.28;;
33954;SDS011;20233;50.804;7.126;2022-09-03T00:23:21;1.35;;;0.30;;
33954;SDS011;20233;50.804;7.126;2022-09-03T00:25:53;1.52;;;0.30;;
33954;SDS011;20233;50.804;7.126;2022-09-03T00:28:46;1.15;;;0.20;;
33954;SDS011;20233;50.804;7.126;2022-09-03T00:31:33;3.25;;;0.45;;
33954;SDS011;20233;50.804;7.126;2022-09-03T00:36:51;2.30;;;0.40;;
33954;SDS011;20233;50.804;7.126;2022-09-03T00:39:18;1.73;;;0.50;;
33954;SDS011;20233;50.804;7.126;2022-09-03T00:44:52;0.73;;;0.28;;
33954;SDS011;20233;50.804;7.126;2022-09-03T00:56:29;4.25;;;0.35;;
33954;SDS011;20233;50.804;7.126;2022-09-03T01:01:49;1.67;;;0.30;;
33954;SDS011;20233;50.804;7.126;2022-09-03T01:04:28;3.00;;;0.40;;
33954;SDS011;20233;50.804;7.126;2022-09-03T01:07:17;1.95;;;0.30;;
33954;SDS011;20233;50.804;7.126;2022-09-03T01:15:29;2.22;;;0.63;;
33954;SDS011;20233;50.804;7.126;2022-09-03T01:23:34;2.20;;;0.30;;
33954;SDS011;20233;50.804;7.126;2022-09-03T01:26:27;2.67;;;0.47;;
33954;SDS011;20233;50.804;7.126;2022-09-03T01:37:05;1.30;;;0.30;;
33954;SDS011;20233;50.804;7.126;2022-09-03T01:39:57;1.55;;;0.30;;
33954;SDS011;20233;50.804;7.126;2022-09-03T01:45:26;2.38;;;0.20;;
33954;SDS011;20233;50.804;7.126;2022-09-03T01:48:24;1.27;;;0.22;;
33954;SDS011;20233;50.804;7.126;2022-09-03T01:51:07;1.60;;;0.40;;
33954;SDS011;20233;50.804;7.126;2022-09-03T01:54:04;1.63;;;0.40;;
33954;SDS011;20233;50.804;7.126;2022-09-03T01:59:53;1.15;;;0.30;;
33954;SDS011;20233;50.804;7.126;2022-09-03T02:02:26;1.77;;;0.20;;
33954;SDS011;20233;50.804;7.126;2022-09-03T02:05:03;1.55;;;0.20;;
33954;SDS011;20233;50.804;7.126;2022-09-03T02:07:34;1.63;;;0.30;;
33954;SDS011;20233;50.804;7.126;2022-09-03T02:10:02;2.10;;;0.20;;
33954;SDS011;20233;50.804;7.126;2022-09-03T02:12:30;1.30;;;0.40;;
33954;SDS011;20233;50.804;7.126;2022-09-03T02:14:59;0.95;;;0.20;;
33954;SDS011;20233;50.804;7.126;2022-09-03T02:17:28;4.88;;;0.30;;
33954;SDS011;20233;50.804;7.126;2022-09-03T02:19:55;1.20;;;0.28;;
33954;SDS011;20233;50.804;7.126;2022-09-03T02:22:22;1.35;;;0.30;;
33954;SDS011;20233;50.804;7.126;2022-09-03T02:24:47;2.72;;;0.30;;
33954;SDS011;20233;50.804;7.126;2022-09-03T02:27:13;0.80;;;0.30;;
33954;SDS011;20233;50.804;7.126;2022-09-03T02:29:39;1.80;;;0.30;;
33954;SDS011;20233;50.804;7.126;2022-09-03T02:32:05;1.95;;;0.20;;
33954;SDS011;20233;50.804;7.126;2022-09-03T02:34:30;2.47;;;0.43;;
33954;SDS011;20233;50.804;7.126;2022-09-03T02:36:56;2.45;;;0.38;;
33954;SDS011;20233;50.804;7.126;2022-09-03T02:39:21;3.72;;;0.50;;
33954;SDS011;20233;50.804;7.126;2022-09-03T02:41:53;1.33;;;0.20;;
33954;SDS011;20233;50.804;7.126;2022-09-03T02:44:23;1.35;;;0.22;;
33954;SDS011;20233;50.804;7.126;2022-09-03T02:46:59;1.90;;;0.22;;
33954;SDS011;20233;50.804;7.126;2022-09-03T02:49:27;1.95;;;0.20;;
33954;SDS011;20233;50.804;7.126;2022-09-03T02:51:58;2.35;;;0.45;;
33954;SDS011;20233;50.804;7.126;2022-09-03T02:56:50;4.10;;;0.63;;
33954;SDS011;20233;50.804;7.126;2022-09-03T02:59:16;1.27;;;0.30;;
33954;SDS011;20233;50.804;7.126;2022-09-03T03:01:42;0.82;;;0.20;;
33954;SDS011;20233;50.804;7.126;2022-09-03T03:04:07;1.83;;;0.30;;
33954;SDS011;20233;50.804;7.126;2022-09-03T03:06:33;3.05;;;0.50;;
33954;SDS011;20233;50.804;7.126;2022-09-03T03:08:58;1.33;;;0.45;;
33954;SDS011;20233;50.804;7.126;2022-09-03T03:11:28;1.33;;;0.38;;
33954;SDS011;20233;50.804;7.126;2022-09-03T03:13:54;1.60;;;0.20;;
33954;SDS011;20233;50.804;7.126;2022-09-03T03:16:20;2.45;;;0.20;;
33954;SDS011;20233;50.804;7.126;2022-09-03T03:18:46;1.05;;;0.38;;
33954;SDS011;20233;50.804;7.126;2022-09-03T03:21:13;4.40;;;0.32;;
33954;SDS011;20233;50.804;7.126;2022-09-03T03:23:39;1.30;;;0.30;;
33954;SDS011;20233;50.804;7.126;2022-09-03T03:26:07;3.63;;;0.30;;
33954;SDS011;20233;50.804;7.126;2022-09-03T03:28:35;2.35;;;0.20;;
33954;SDS011;20233;50.804;7.126;2022-09-03T03:31:08;2.35;;;0.30;;
33954;SDS011;20233;50.804;7.126;2022-09-03T03:33:35;1.13;;;0.45;;
33954;SDS011;20233;50.804;7.126;2022-09-03T03:36:05;0.85;;;0.28;;
33954;SDS011;20233;50.804;7.126;2022-09-03T03:38:33;1.17;;;0.22;;
33954;SDS011;20233;50.804;7.126;2022-09-03T03:41:05;4.35;;;0.30;;
33954;SDS011;20233;50.804;7.126;2022-09-03T03:43:32;1.70;;;0.30;;
33954;SDS011;20233;50.804;7.126;2022-09-03T03:45:57;1.58;;;0.40;;
33954;SDS011;20233;50.804;7.126;2022-09-03T03:48:24;1.88;;;0.30;;
33954;SDS011;20233;50.804;7.126;2022-09-03T03:50:50;1.58;;;0.25;;
33954;SDS011;20233;50.804;7.126;2022-09-03T03:53:16;2.10;;;0.30;;
33954;SDS011;20233;50.804;7.126;2022-09-03T03:55:42;1.65;;;0.30;;
33954;SDS011;20233;50.804;7.126;2022-09-03T03:58:07;1.30;;;0.25;;
33954;SDS011;20233;50.804;7.126;2022-09-03T04:00:33;2.08;;;0.60;;
33954;SDS011;20233;50.804;7.126;2022-09-03T04:03:02;1.30;;;0.35;;
33954;SDS011;20233;50.804;7.126;2022-09-03T04:05:28;0.90;;;0.20;;
33954;SDS011;20233;50.804;7.126;2022-09-03T04:07:54;1.10;;;0.30;;
33954;SDS011;20233;50.804;7.126;2022-09-03T04:10:19;2.13;;;0.22;;
33954;SDS011;20233;50.804;7.126;2022-09-03T04:12:45;2.05;;;0.57;;
33954;SDS011;20233;50.804;7.126;2022-09-03T04:15:11;1.90;;;0.30;;
33954;SDS011;20233;50.804;7.126;2022-09-03T04:17:36;1.30;;;0.30;;
33954;SDS011;20233;50.804;7.126;2022-09-03T04:20:03;0.68;;;0.25;;
33954;SDS011;20233;50.804;7.126;2022-09-03T04:22:29;1.08;;;0.20;;
33954;SDS011;20233;50.804;7.126;2022-09-03T04:24:55;1.27;;;0.20;;
33954;SDS011;20233;50.804;7.126;2022-09-03T04:27:20;1.60;;;0.20;;
33954;SDS011;20233;50.804;7.126;2022-09-03T04:29:46;3.33;;;0.35;;
33954;SDS011;20233;50.804;7.126;2022-09-03T04:32:11;1.63;;;0.28;;
33954;SDS011;20233;50.804;7.126;2022-09-03T04:34:56;1.38;;;0.30;;
33954;SDS011;20233;50.804;7.126;2022-09-03T04:37:21;0.98;;;0.30;;
33954;SDS011;20233;50.804;7.126;2022-09-03T04:39:47;0.50;;;0.20;;
33954;SDS011;20233;50.804;7.126;2022-09-03T04:42:12;1.23;;;0.20;;
33954;SDS011;20233;50.804;7.126;2022-09-03T04:44:38;0.95;;;0.20;;
33954;SDS011;20233;50.804;7.126;2022-09-03T04:47:05;0.93;;;0.30;;
33954;SDS011;20233;50.804;7.126;2022-09-03T04:49:30;2.53;;;0.30;;
33954;SDS011;20233;50.804;7.126;2022-09-03T04:51:56;3.85;;;0.22;;
33954;SDS011;20233;50.804;7.126;2022-09-03T04:54:21;1.55;;;0.40;;
33954;SDS011;20233;50.804;7.126;2022-09-03T04:56:47;1.33;;;0.30;;
33954;SDS011;20233;50.804;7.126;2022-09-03T04:59:13;1.27;;;0.28;;
33954;SDS011;20233;50.804;7.126;2022-09-03T05:01:39;1.83;;;0.30;;
33954;SDS011;20233;50.804;7.126;2022-09-03T05:04:07;0.75;;;0.20;;
33954;SDS011;20233;50.804;7.126;2022-09-03T05:06:33;1.95;;;0.40;;
33954;SDS011;20233;50.804;7.126;2022-09-03T05:09:00;2.35;;;0.40;;
33954;SDS011;20233;50.804;7.126;2022-09-03T05:11:27;2.45;;;0.32;;
33954;SDS011;20233;50.804;7.126;2022-09-03T05:13:54;2.35;;;0.30;;
33954;SDS011;20233;50.804;7.126;2022-09-03T05:16:21;2.30;;;0.40;;
33954;SDS011;20233;50.804;7.126;2022-09-03T05:18:51;3.83;;;0.40;;
33954;SDS011;20233;50.804;7.126;2022-09-03T05:21:18;0.98;;;0.30;;
33954;SDS011;20233;50.804;7.126;2022-09-03T05:23:45;2.08;;;0.20;;
33954;SDS011;20233;50.804;7.126;2022-09-03T05:26:16;1.52;;;0.30;;
33954;SDS011;20233;50.804;7.126;2022-09-03T05:28:57;1.95;;;0.30;;
33954;SDS011;20233;50.804;7.126;2022-09-03T05:31:24;1.17;;;0.30;;
33954;SDS011;20233;50.804;7.126;2022-09-03T05:33:56;1.63;;;0.20;;
33954;SDS011;20233;50.804;7.126;2022-09-03T05:36:24;1.70;;;0.20;;
33954;SDS011;20233;50.804;7.126;2022-09-03T05:38:51;1.20;;;0.40;;
33954;SDS011;20233;50.804;7.126;2022-09-03T05:41:21;1.13;;;0.20;;
33954;SDS011;20233;50.804;7.126;2022-09-03T05:43:51;1.92;;;0.30;;
33954;SDS011;20233;50.804;7.126;2022-09-03T05:46:21;2.20;;;0.30;;
33954;SDS011;20233;50.804;7.126;2022-09-03T05:48:50;2.60;;;0.30;;
33954;SDS011;20233;50.804;7.126;2022-09-03T05:51:16;3.28;;;0.20;;
33954;SDS011;20233;50.804;7.126;2022-09-03T05:53:44;3.70;;;0.75;;
33954;SDS011;20233;50.804;7.126;2022-09-03T05:56:21;1.67;;;0.68;;
33954;SDS011;20233;50.804;7.126;2022-09-03T05:58:48;1.85;;;0.40;;
33954;SDS011;20233;50.804;7.126;2022-09-03T06:01:25;1.33;;;0.50;;
33954;SDS011;20233;50.804;7.126;2022-09-03T06:06:20;1.55;;;0.25;;
33954;SDS011;20233;50.804;7.126;2022-09-03T06:08:50;0.93;;;0.20;;
33954;SDS011;20233;50.804;7.126;2022-09-03T06:11:16;2.20;;;0.52;;
33954;SDS011;20233;50.804;7.126;2022-09-03T06:13:42;0.73;;;0.30;;
33954;SDS011;20233;50.804;7.126;2022-09-03T06:16:08;2.72;;;0.25;;
33954;SDS011;20233;50.804;7.126;2022-09-03T06:18:33;0.90;;;0.20;;
33954;SDS011;20233;50.804;7.126;2022-09-03T06:21:03;0.60;;;0.20;;
33954;SDS011;20233;50.804;7.126;2022-09-03T06:23:31;1.02;;;0.50;;
33954;SDS011;20233;50.804;7.126;2022-09-03T06:25:59;1.40;;;0.30;;
33954;SDS011;20233;50.804;7.126;2022-09-03T06:28:25;1.05;;;0.20;;
33954;SDS011;20233;50.804;7.126;2022-09-03T06:30:51;1.25;;;0.30;;
33954;SDS011;20233;50.804;7.126;2022-09-03T06:33:17;1.90;;;0.22;;
33954;SDS011;20233;50.804;7.126;2022-09-03T06:35:43;1.00;;;0.30;;
33954;SDS011;20233;50.804;7.126;2022-09-03T06:38:10;0.90;;;0.20;;
33954;SDS011;20233;50.804;7.126;2022-09-03T06:40:36;0.77;;;0.35;;
33954;SDS011;20233;50.804;7.126;2022-09-03T06:43:02;1.25;;;0.40;;
33954;SDS011;20233;50.804;7.126;2022-09-03T06:45:28;2.03;;;0.20;;
33954;SDS011;20233;50.804;7.126;2022-09-03T06:47:54;2.53;;;0.32;;
33954;SDS011;20233;50.804;7.126;2022-09-03T06:50:20;2.17;;;0.30;;
33954;SDS011;20233;50.804;7.126;2022-09-03T06:52:52;0.82;;;0.20;;
33954;SDS011;20233;50.804;7.126;2022-09-03T06:55:18;1.13;;;0.20;;
33954;SDS011;20233;50.804;7.126;2022-09-03T06:57:45;0.80;;;0.30;;
33954;SDS011;20233;50.804;7.126;2022-09-03T07:00:11;5.43;;;1.00;;
33954;SDS011;20233;50.804;7.126;2022-09-03T07:02:38;1.95;;;0.32;;
33954;SDS011;20233;50.804;7.126;2022-09-03T07:05:05;0.75;;;0.20;;
33954;SDS011;20233;50.804;7.126;2022-09-03T07:07:31;1.05;;;0.20;;
33954;SDS011;20233;50.804;7.126;2022-09-03T07:09:57;1.27;;;0.40;;
33954;SDS011;20233;50.804;7.126;2022-09-03T07:12:23;1.52;;;0.30;;
33954;SDS011;20233;50.804;7.126;2022-09-03T07:14:48;3.25;;;0.20;;
33954;SDS011;20233;50.804;7.126;2022-09-03T07:17:14;1.05;;;0.30;;
33954;SDS011;20233;50.804;7.126;2022-09-03T07:19:40;2.97;;;0.40;;
33954;SDS011;20233;50.804;7.126;2022-09-03T07:22:06;1.35;;;0.22;;
33954;SDS011;20233;50.804;7.126;2022-09-03T07:24:33;0.68;;;0.22;;
33954;SDS011;20233;50.804;7.126;2022-09-03T07:26:59;0.65;;;0.20;;
33954;SDS011;20233;50.804;7.126;2022-09-03T07:29:25;1.80;;;0.40;;
33954;SDS011;20233;50.804;7.126;2022-09-03T07:31:52;2.90;;;0.32;;
33954;SDS011;20233;50.804;7.126;2022-09-03T07:34:18;2.00;;;0.40;;
33954;SDS011;20233;50.804;7.126;2022-09-03T07:36:45;0.90;;;0.20;;
33954;SDS011;20233;50.804;7.126;2022-09-03T07:39:12;1.42;;;0.20;;
33954;SDS011;20233;50.804;7.126;2022-09-03T07:41:39;1.13;;;0.25;;
33954;SDS011;20233;50.804;7.126;2022-09-03T07:46:40;0.80;;;0.20;;
33954;SDS011;20233;50.804;7.126;2022-09-03T07:49:05;2.50;;;0.28;;
33954;SDS011;20233;50.804;7.126;2022-09-03T07:51:35;4.10;;;0.25;;
33954;SDS011;20233;50.804;7.126;2022-09-03T07:54:03;0.88;;;0.50;;
33954;SDS011;20233;50.804;7.126;2022-09-03T07:56:34;4.70;;;0.28;;
33954;SDS011;20233;50.804;7.126;2022-09-03T07:59:00;2.15;;;0.20;;
33954;SDS011;20233;50.804;7.126;2022-09-03T08:01:27;2.72;;;0.40;;
33954;SDS011;20233;50.804;7.126;2022-09-03T08:03:56;2.67;;;0.40;;
33954;SDS011;20233;50.804;7.126;2022-09-03T08:06:23;2.30;;;0.50;;
33954;SDS011;20233;50.804;7.126;2022-09-03T08:08:53;3.45;;;0.40;;
33954;SDS011;20233;50.804;7.126;2022-09-03T08:11:24;1.95;;;0.40;;
33954;SDS011;20233;50.804;7.126;2022-09-03T08:13:54;1.92;;;0.50;;
33954;SDS011;20233;50.804;7.126;2022-09-03T08:16:25;2.72;;;0.60;;
33954;SDS011;20233;50.804;7.126;2022-09-03T08:18:51;2.97;;;0.60;;
33954;SDS011;20233;50.804;7.126;2022-09-03T08:21:17;3.10;;;0.90;;
33954;SDS011;20233;50.804;7.126;2022-09-03T08:23:45;1.95;;;0.50;;
33954;SDS011;20233;50.804;7.126;2022-09-03T08:26:12;1.20;;;0.47;;
33954;SDS011;20233;50.804;7.126;2022-09-03T08:28:39;1.30;;;0.50;;
33954;SDS011;20233;50.804;7.126;2022-09-03T08:31:06;1.67;;;0.50;;
33954;SDS011;20233;50.804;7.126;2022-09-03T08:33:35;4.78;;;0.93;;
33954;SDS011;20233;50.804;7.126;2022-09-03T08:36:05;3.58;;;1.10;;
33954;SDS011;20233;50.804;7.126;2022-09-03T08:38:32;6.88;;;1.58;;
33954;SDS011;20233;50.804;7.126;2022-09-03T08:41:03;4.93;;;1.20;;
33954;SDS011;20233;50.804;7.126;2022-09-03T08:43:36;4.35;;;1.10;;
33954;SDS011;20233;50.804;7.126;2022-09-03T08:46:32;4.60;;;1.20;;
33954;SDS011;20233;50.804;7.126;2022-09-03T08:49:13;2.50;;;1.02;;
33954;SDS011;20233;50.804;7.126;2022-09-03T08:51:44;7.55;;;0.98;;
33954;SDS011;20233;50.804;7.126;2022-09-03T08:54:13;7.38;;;1.20;;
33954;SDS011;20233;50.804;7.126;2022-09-03T08:56:40;4.18;;;0.90;;
33954;SDS011;20233;50.804;7.126;2022-09-03T08:59:07;4.57;;;1.10;;
33954;SDS011;20233;50.804;7.126;2022-09-03T09:02:16;3.58;;;0.85;;
33954;SDS011;20233;50.804;7.126;2022-09-03T09:10:35;2.63;;;1.02;;
33954;SDS011;20233;50.804;7.126;2022-09-03T09:13:26;4.25;;;1.48;;
33954;SDS011;20233;50.804;7.126;2022-09-03T09:15:56;3.58;;;0.98;;
33954;SDS011;20233;50.804;7.126;2022-09-03T09:18:49;6.03;;;0.80;;
33954;SDS011;20233;50.804;7.126;2022-09-03T09:21:36;3.75;;;0.77;;
33954;SDS011;20233;50.804;7.126;2022-09-03T09:24:16;2.17;;;0.70;;
33954;SDS011;20233;50.804;7.126;2022-09-03T09:26:47;3.15;;;1.33;;
33954;SDS011;20233;50.804;7.126;2022-09-03T09:29:14;4.80;;;0.80;;
33954;SDS011;20233;50.804;7.126;2022-09-03T09:31:40;4.10;;;1.48;;
33954;SDS011;20233;50.804;7.126;2022-09-03T09:34:09;4.43;;;1.95;;
33954;SDS011;20233;50.804;7.126;2022-09-03T09:36:46;3.55;;;0.73;;
33954;SDS011;20233;50.804;7.126;2022-09-03T09:39:14;2.75;;;0.65;;
33954;SDS011;20233;50.804;7.126;2022-09-03T09:41:40;1.58;;;0.65;;
33954;SDS011;20233;50.804;7.126;2022-09-03T09:44:06;3.63;;;0.50;;
33954;SDS011;20233;50.804;7.126;2022-09-03T09:46:36;2.05;;;0.70;;
33954;SDS011;20233;50.804;7.126;2022-09-03T09:49:07;1.70;;;0.52;;
33954;SDS011;20233;50.804;7.126;2022-09-03T09:51:58;2.35;;;0.52;;
33954;SDS011;20233;50.804;7.126;2022-09-03T09:54:25;0.90;;;0.43;;
33954;SDS011;20233;50.804;7.126;2022-09-03T09:56:58;2.05;;;0.40;;
33954;SDS011;20233;50.804;7.126;2022-09-03T09:59:29;3.25;;;0.50;;
33954;SDS011;20233;50.804;7.126;2022-09-03T10:04:36;1.23;;;0.30;;
33954;SDS011;20233;50.804;7.126;2022-09-03T10:07:16;3.22;;;0.40;;
33954;SDS011;20233;50.804;7.126;2022-09-03T10:09:58;2.15;;;0.40;;
33954;SDS011;20233;50.804;7.126;2022-09-03T10:12:40;2.45;;;0.40;;
33954;SDS011;20233;50.804;7.126;2022-09-03T10:20:21;1.95;;;0.38;;
33954;SDS011;20233;50.804;7.126;2022-09-03T10:22:56;1.67;;;0.50;;
33954;SDS011;20233;50.804;7.126;2022-09-03T10:28:17;2.25;;;0.65;;
33954;SDS011;20233;50.804;7.126;2022-09-03T10:30:58;2.03;;;0.43;;
33954;SDS011;20233;50.804;7.126;2022-09-03T10:33:50;2.15;;;0.40;;
33954;SDS011;20233;50.804;7.126;2022-09-03T10:36:24;2.10;;;0.50;;
33954;SDS011;20233;50.804;7.126;2022-09-03T10:38:59;3.55;;;0.40;;
33954;SDS011;20233;50.804;7.126;2022-09-03T10:41:39;1.92;;;0.60;;
33954;SDS011;20233;50.804;7.126;2022-09-03T10:47:29;2.25;;;0.40;;
33954;SDS011;20233;50.804;7.126;2022-09-03T10:50:12;1.40;;;0.65;;
33954;SDS011;20233;50.804;7.126;2022-09-03T10:53:04;1.75;;;0.47;;
33954;SDS011;20233;50.804;7.126;2022-09-03T11:00:52;2.00;;;0.73;;
33954;SDS011;20233;50.804;7.126;2022-09-03T11:06:22;2.83;;;1.02;;
33954;SDS011;20233;50.804;7.126;2022-09-03T11:11:28;1.20;;;0.60;;
33954;SDS011;20233;50.804;7.126;2022-09-03T11:14:00;1.30;;;0.63;;
33954;SDS011;20233;50.804;7.126;2022-09-03T11:16:44;1.88;;;0.80;;
33954;SDS011;20233;50.804;7.126;2022-09-03T11:19:36;3.45;;;0.70;;
33954;SDS011;20233;50.804;7.126;2022-09-03T11:22:12;3.45;;;0.77;;
33954;SDS011;20233;50.804;7.126;2022-09-03T11:24:41;2.65;;;0.77;;
33954;SDS011;20233;50.804;7.126;2022-09-03T11:30:08;5.30;;;0.77;;
33954;SDS011;20233;50.804;7.126;2022-09-03T11:32:57;3.25;;;0.82;;
33954;SDS011;20233;50.804;7.126;2022-09-03T11:35:28;2.30;;;0.47;;
33954;SDS011;20233;50.804;7.126;2022-09-03T11:38:00;2.70;;;0.60;;
33954;SDS011;20233;50.804;7.126;2022-09-03T11:40:33;4.25;;;1.30;;
33954;SDS011;20233;50.804;7.126;2022-09-03T11:43:06;1.10;;;0.63;;
33954;SDS011;20233;50.804;7.126;2022-09-03T11:46:03;4.40;;;1.33;;
33954;SDS011;20233;50.804;7.126;2022-09-03T11:48:48;3.05;;;0.90;;
33954;SDS011;20233;50.804;7.126;2022-09-03T11:54:01;1.73;;;0.60;;
33954;SDS011;20233;50.804;7.126;2022-09-03T11:56:33;3.42;;;0.80;;
33954;SDS011;20233;50.804;7.126;2022-09-03T12:01:28;1.35;;;0.70;;
33954;SDS011;20233;50.804;7.126;2022-09-03T12:04:03;1.60;;;0.77;;
33954;SDS011;20233;50.804;7.126;2022-09-03T12:06:36;2.92;;;0.80;;
33954;SDS011;20233;50.804;7.126;2022-09-03T12:18:27;2.25;;;0.98;;
33954;SDS011;20233;50.804;7.126;2022-09-03T12:23:28;2.90;;;0.88;;
33954;SDS011;20233;50.804;7.126;2022-09-03T12:25:58;2.08;;;0.70;;
33954;SDS011;20233;50.804;7.126;2022-09-03T12:28:34;2.25;;;0.82;;
33954;SDS011;20233;50.804;7.126;2022-09-03T12:31:06;3.20;;;0.90;;
33954;SDS011;20233;50.804;7.126;2022-09-03T12:33:46;2.38;;;1.00;;
33954;SDS011;20233;50.804;7.126;2022-09-03T12:36:13;4.28;;;0.88;;
33954;SDS011;20233;50.804;7.126;2022-09-03T12:38:38;2.65;;;0.75;;
33954;SDS011;20233;50.804;7.126;2022-09-03T12:41:09;2.80;;;0.90;;
33954;SDS011;20233;50.804;7.126;2022-09-03T12:43:49;2.85;;;1.00;;
33954;SDS011;20233;50.804;7.126;2022-09-03T12:46:26;1.20;;;0.55;;
33954;SDS011;20233;50.804;7.126;2022-09-03T12:48:54;3.60;;;1.05;;
33954;SDS011;20233;50.804;7.126;2022-09-03T12:51:23;2.95;;;0.90;;
33954;SDS011;20233;50.804;7.126;2022-09-03T12:53:49;1.70;;;0.80;;
33954;SDS011;20233;50.804;7.126;2022-09-03T12:56:16;2.42;;;0.85;;
33954;SDS011;20233;50.804;7.126;2022-09-03T12:58:47;1.55;;;1.00;;
33954;SDS011;20233;50.804;7.126;2022-09-03T13:01:26;5.85;;;1.10;;
33954;SDS011;20233;50.804;7.126;2022-09-03T13:04:01;2.17;;;1.38;;
33954;SDS011;20233;50.804;7.126;2022-09-03T13:06:40;1.88;;;0.93;;
33954;SDS011;20233;50.804;7.126;2022-09-03T13:09:11;2.53;;;0.80;;
33954;SDS011;20233;50.804;7.126;2022-09-03T13:11:39;3.85;;;1.25;;
33954;SDS011;20233;50.804;7.126;2022-09-03T13:14:06;3.42;;;1.05;;
33954;SDS011;20233;50.804;7.126;2022-09-03T13:19:08;1.23;;;0.80;;
33954;SDS011;20233;50.804;7.126;2022-09-03T13:30:09;1.85;;;0.93;;
33954;SDS011;20233;50.804;7.126;2022-09-03T13:38:35;1.40;;;0.80;;
33954;SDS011;20233;50.804;7.126;2022-09-03T13:44:33;3.60;;;0.88;;
33954;SDS011;20233;50.804;7.126;2022-09-03T13:47:08;2.42;;;1.52;;
33954;SDS011;20233;50.804;7.126;2022-09-03T13:49:38;3.20;;;1.00;;
33954;SDS011;20233;50.804;7.126;2022-09-03T13:52:45;11.32;;;1.88;;
33954;SDS011;20233;50.804;7.126;2022-09-03T13:55:34;2.88;;;0.77;;
33954;SDS011;20233;50.804;7.126;2022-09-03T14:00:51;2.67;;;0.70;;
33954;SDS011;20233;50.804;7.126;2022-09-03T14:06:17;2.35;;;0.90;;
33954;SDS011;20233;50.804;7.126;2022-09-03T14:09:09;2.28;;;0.80;;
33954;SDS011;20233;50.804;7.126;2022-09-03T14:14:43;1.65;;;0.98;;
33954;SDS011;20233;50.804;7.126;2022-09-03T14:25:55;1.70;;;0.70;;
33954;SDS011;20233;50.804;7.126;2022-09-03T14:36:36;2.33;;;0.80;;
33954;SDS011;20233;50.804;7.126;2022-09-03T14:42:23;1.30;;;0.52;;
33954;SDS011;20233;50.804;7.126;2022-09-03T14:48:26;2.30;;;0.80;;
33954;SDS011;20233;50.804;7.126;2022-09-03T14:53:51;2.20;;;0.50;;
33954;SDS011;20233;50.804;7.126;2022-09-03T14:56:48;1.80;;;0.65;;
33954;SDS011;20233;50.804;7.126;2022-09-03T14:59:39;1.33;;;0.50;;
33954;SDS011;20233;50.804;7.126;2022-09-03T15:04:45;1.85;;;0.50;;
33954;SDS011;20233;50.804;7.126;2022-09-03T15:07:23;2.38;;;0.52;;
33954;SDS011;20233;50.804;7.126;2022-09-03T15:12:39;1.83;;;0.50;;
33954;SDS011;20233;50.804;7.126;2022-09-03T15:15:12;2.35;;;0.82;;
33954;SDS011;20233;50.804;7.126;2022-09-03T15:23:22;0.93;;;0.40;;
33954;SDS011;20233;50.804;7.126;2022-09-03T15:32:09;1.83;;;0.40;;
33954;SDS011;20233;50.804;7.126;2022-09-03T15:37:09;1.70;;;0.30;;
33954;SDS011;20233;50.804;7.126;2022-09-03T15:39:42;4.40;;;0.60;;
33954;SDS011;20233;50.804;7.126;2022-09-03T15:42:16;1.23;;;0.40;;
33954;SDS011;20233;50.804;7.126;2022-09-03T15:44:52;1.52;;;0.40;;
33954;SDS011;20233;50.804;7.126;2022-09-03T15:55:29;1.20;;;0.52;;
33954;SDS011;20233;50.804;7.126;2022-09-03T15:58:04;1.48;;;0.60;;
33954;SDS011;20233;50.804;7.126;2022-09-03T16:00:55;1.67;;;0.60;;
33954;SDS011;20233;50.804;7.126;2022-09-03T16:06:35;2.17;;;0.50;;
33954;SDS011;20233;50.804;7.126;2022-09-03T16:09:37;0.75;;;0.22;;
33954;SDS011;20233;50.804;7.126;2022-09-03T16:12:28;2.08;;;0.57;;
33954;SDS011;20233;50.804;7.126;2022-09-03T16:15:42;3.55;;;0.30;;
33954;SDS011;20233;50.804;7.126;2022-09-03T16:21:27;1.40;;;0.50;;
33954;SDS011;20233;50.804;7.126;2022-09-03T16:24:08;3.08;;;0.50;;
33954;SDS011;20233;50.804;7.126;2022-09-03T16:26:53;2.63;;;0.47;;
33954;SDS011;20233;50.804;7.126;2022-09-03T16:29:40;3.17;;;0.80;;
33954;SDS011;20233;50.804;7.126;2022-09-03T16:32:20;3.50;;;0.65;;
33954;SDS011;20233;50.804;7.126;2022-09-03T16:37:43;2.75;;;1.05;;
33954;SDS011;20233;50.804;7.126;2022-09-03T16:43:09;4.85;;;1.60;;
33954;SDS011;20233;50.804;7.126;2022-09-03T16:46:05;1.92;;;0.70;;
33954;SDS011;20233;50.804;7.126;2022-09-03T16:51:43;1.55;;;0.70;;
33954;SDS011;20233;50.804;7.126;2022-09-03T16:54:38;1.73;;;0.60;;
33954;SDS011;20233;50.804;7.126;2022-09-03T17:10:50;1.08;;;0.40;;
33954;SDS011;20233;50.804;7.126;2022-09-03T17:25:03;1.60;;;0.30;;
33954;SDS011;20233;50.804;7.126;2022-09-03T17:30:46;1.73;;;0.40;;
33954;SDS011;20233;50.804;7.126;2022-09-03T17:34:07;2.83;;;0.30;;
33954;SDS011;20233;50.804;7.126;2022-09-03T17:36:29;3.35;;;0.65;;
33954;SDS011;20233;50.804;7.126;2022-09-03T17:50:24;1.30;;;0.77;;
33954;SDS011;20233;50.804;7.126;2022-09-03T17:52:59;1.58;;;0.77;;
33954;SDS011;20233;50.804;7.126;2022-09-03T17:56:22;3.08;;;0.70;;
33954;SDS011;20233;50.804;7.126;2022-09-03T17:58:26;2.63;;;0.90;;
33954;SDS011;20233;50.804;7.126;2022-09-03T18:01:22;1.98;;;0.70;;
33954;SDS011;20233;50.804;7.126;2022-09-03T18:03:54;1.75;;;0.82;;
33954;SDS011;20233;50.804;7.126;2022-09-03T18:06:41;1.45;;;0.65;;
33954;SDS011;20233;50.804;7.126;2022-09-03T18:09:21;3.40;;;1.20;;
33954;SDS011;20233;50.804;7.126;2022-09-03T18:20:27;2.70;;;1.25;;
33954;SDS011;20233;50.804;7.126;2022-09-03T18:23:21;2.33;;;1.25;;
33954;SDS011;20233;50.804;7.126;2022-09-03T18:26:13;3.63;;;1.70;;
33954;SDS011;20233;50.804;7.126;2022-09-03T18:29:06;3.25;;;1.52;;
33954;SDS011;20233;50.804;7.126;2022-09-03T18:31:56;3.53;;;1.70;;
33954;SDS011;20233;50.804;7.126;2022-09-03T18:34:42;3.30;;;1.63;;
33954;SDS011;20233;50.804;7.126;2022-09-03T18:37:28;3.60;;;1.33;;
33954;SDS011;20233;50.804;7.126;2022-09-03T18:40:17;4.15;;;1.85;;
33954;SDS011;20233;50.804;7.126;2022-09-03T18:43:23;3.08;;;1.60;;
33954;SDS011;20233;50.804;7.126;2022-09-03T18:46:31;4.07;;;1.55;;
33954;SDS011;20233;50.804;7.126;2022-09-03T18:52:19;3.75;;;1.52;;
33954;SDS011;20233;50.804;7.126;2022-09-03T18:55:19;2.67;;;1.40;;
33954;SDS011;20233;50.804;7.126;2022-09-03T19:04:23;6.85;;;1.83;;
33954;SDS011;20233;50.804;7.126;2022-09-03T19:10:52;2.78;;;1.48;;
33954;SDS011;20233;50.804;7.126;2022-09-03T19:13:40;2.33;;;1.65;;
33954;SDS011;20233;50.804;7.126;2022-09-03T19:19:38;4.53;;;1.50;;
33954;SDS011;20233;50.804;7.126;2022-09-03T19:22:37;2.08;;;1.42;;
33954;SDS011;20233;50.804;7.126;2022-09-03T19:25:23;2.25;;;1.02;;
33954;SDS011;20233;50.804;7.126;2022-09-03T19:31:26;2.22;;;1.60;;
33954;SDS011;20233;50.804;7.126;2022-09-03T19:44:48;3.17;;;1.67;;
33954;SDS011;20233;50.804;7.126;2022-09-03T19:47:28;2.63;;;1.40;;
33954;SDS011;20233;50.804;7.126;2022-09-03T19:50:28;2.88;;;1.40;;
33954;SDS011;20233;50.804;7.126;2022-09-03T19:53:17;2.75;;;1.33;;
33954;SDS011;20233;50.804;7.126;2022-09-03T19:56:04;1.92;;;1.30;;
33954;SDS011;20233;50.804;7.126;2022-09-03T19:58:54;2.70;;;1.30;;
33954;SDS011;20233;50.804;7.126;2022-09-03T20:01:42;2.63;;;1.00;;
33954;SDS011;20233;50.804;7.126;2022-09-03T20:04:32;3.55;;;1.40;;
33954;SDS011;20233;50.804;7.126;2022-09-03T20:07:20;1.98;;;1.25;;
33954;SDS011;20233;50.804;7.126;2022-09-03T20:10:08;2.60;;;1.48;;
33954;SDS011;20233;50.804;7.126;2022-09-03T20:12:49;2.53;;;1.50;;
33954;SDS011;20233;50.804;7.126;2022-09-03T20:15:25;2.35;;;1.80;;